• Join FlightAware (Why Join?)
  • Login
  • US Flag 
01:23AM EDT


 

Airport Tracker/Info


-or-


 

Live Flight TrackerFlight Track Log ✈ TRS886 ✈ 16-May-2013 ✈ KMCO - KSTL

Flight Track Log - Related Links

Times and Time Zones

All times are in EDT time to prevent confusion due to time zone crossing. See the TRS886 flight status page for this flight to view local times or setup timezone preferences in your user account.

Time Position Orientation Groundspeed Altitude Reporting Facility
EDT Latitude Longitude Course Direction KTS MPH feet Rate Location/Type
02:02PM 28.4000 -81.3000 270° West 172 198 1,000  Level Orlando TRACON
02:03PM 28.3667 -81.3333 221° Southwest 228 262 2,100 2,340 Climbing Orlando TRACON
02:04PM 28.3667 -81.4000 270° West 276 318 5,100 2,760 Climbing Orlando TRACON
02:06PM 28.3711 -81.6306 271° West 306 352 11,800 2,280 Climbing Jacksonville Center
02:07PM 28.3931 -81.7411 283° West 333 383 13,000 1,680 Climbing Jacksonville Center
02:08PM 28.4167 -82.0465 270° West  Level FlightAware Approximate
02:08PM 28.4128 -81.8564 281° West 357 411 15,200  Level Jacksonville Center
02:09PM 28.4369 -81.9908 282° West 383 441 17,600 2,040 Climbing Jacksonville Center
02:10PM 28.4583 -82.0992 283° West 398 458 19,400 1,800 Climbing Jacksonville Center
02:11PM 28.4842 -82.2264 283° West 398 458 21,300 1,620 Climbing Jacksonville Center
02:12PM 28.5306 -82.3419 295° West 403 464 22,700 1,200 Climbing Jacksonville Center
02:13PM 28.6228 -82.4339 319° Northwest 411 473 23,800 960 Climbing Jacksonville Center
02:14PM 28.7192 -82.5186 322° Northwest 421 484 24,700 900 Climbing Jacksonville Center
02:15PM 28.8111 -82.6106 319° Northwest 433 498 25,700 900 Climbing Jacksonville Center
02:16PM 28.9053 -82.7075 318° Northwest 445 512 26,600 960 Climbing Jacksonville Center
02:17PM 29.0014 -82.8025 319° Northwest 451 519 27,700 1,200 Climbing Jacksonville Center
02:18PM 29.0953 -82.8903 321° Northwest 451 519 29,100 1,260 Climbing Jacksonville Center
02:19PM 29.1975 -82.9664 327° Northwest 446 513 30,300 1,140 Climbing Jacksonville Center
02:20PM 29.2997 -83.0425 327° Northwest 441 507 31,400 840 Climbing Jacksonville Center
02:21PM 29.4103 -83.1261 327° Northwest 436 502 32,000 300 Climbing Jacksonville Center
02:22PM 29.5042 -83.1956 327° Northwest 444 511 32,000  Level Jacksonville Center
02:23PM 29.6125 -83.2772 327° Northwest 436 502 32,000  Level Jacksonville Center
02:24PM 29.7144 -83.3517 328° Northwest 431 496 32,000  Level Jacksonville Center
02:25PM 29.8144 -83.4264 327° Northwest 431 496 32,000  Level Jacksonville Center
02:26PM 29.9164 -83.5036 327° Northwest 436 502 32,000  Level Jacksonville Center
02:27PM 30.0183 -83.5786 328° Northwest 436 502 32,000  Level Jacksonville Center
02:28PM 30.1181 -83.6539 327° Northwest 436 502 32,000  Level Jacksonville Center
02:29PM 30.2200 -83.7292 327° Northwest 436 502 32,000  Level Jacksonville Center
02:30PM 30.3197 -83.8069 326° Northwest 436 502 32,000  Level Jacksonville Center
02:31PM 30.4214 -83.8803 328° Northwest 431 496 32,000  Level Jacksonville Center
02:32PM 30.5231 -83.9561 327° Northwest 431 496 32,000  Level Jacksonville Center
02:33PM 30.6183 -84.0319 326° Northwest 436 502 32,000  Level Jacksonville Center
02:34PM 30.7222 -84.1106 327° Northwest 436 502 32,000  Level Jacksonville Center
02:35PM 30.8258 -84.1917 326° Northwest 436 502 32,000  Level Jacksonville Center
02:36PM 30.9231 -84.2681 326° Northwest 436 502 32,000  Level Jacksonville Center
02:37PM 31.0244 -84.3447 327° Northwest 436 502 32,000  Level Jacksonville Center
02:38PM 31.1258 -84.4264 325° Northwest 436 502 32,000  Level Jacksonville Center
02:39PM 31.2272 -84.5008 328° Northwest 436 502 32,000  Level Jacksonville Center
02:41PM 31.4028 -84.6397 326° Northwest 434 499 32,000  Level Atlanta Center
02:42PM 31.5047 -84.7183 327° Northwest 434 499 32,000  Level Atlanta Center
02:43PM 31.6025 -84.7972 326° Northwest 434 499 32,000  Level Atlanta Center
02:44PM 31.7083 -84.8761 328° Northwest 434 499 32,000  Level Atlanta Center
02:45PM 31.8100 -84.9578 326° Northwest 434 499 32,000  Level Atlanta Center
02:46PM 31.9136 -85.0419 325° Northwest 439 505 32,000  Level Atlanta Center
02:47PM 32.0278 -85.1289 327° Northwest 444 511 32,000  Level Atlanta Center
02:48PM 32.1314 -85.2086 327° Northwest 444 511 32,000  Level Atlanta Center
02:49PM 32.2328 -85.2886 326° Northwest 438 504 32,000  Level Atlanta Center
02:50PM 32.3364 -85.3689 327° Northwest 438 504 32,000  Level Atlanta Center
02:51PM 32.4419 -85.4542 326° Northwest 443 510 32,000  Level Atlanta Center
02:52PM 32.5411 -85.5319 327° Northwest 443 510 32,000  Level Atlanta Center
02:53PM 32.6425 -85.6175 325° Northwest 448 516 32,000  Level Atlanta Center
02:54PM 32.7353 -85.6908 326° Northwest 448 516 32,000  Level Atlanta Center
02:55PM 32.8386 -85.7744 326° Northwest 448 516 32,000  Level Atlanta Center
02:56PM 32.9397 -85.8556 326° Northwest 448 516 32,000  Level Atlanta Center
02:57PM 33.0408 -85.9394 325° Northwest 443 510 32,000  Level Atlanta Center
02:58PM 33.1458 -86.0211 327° Northwest 449 517 32,000  Level Atlanta Center
02:59PM 33.2447 -86.1028 325° Northwest 443 510 32,000  Level Atlanta Center
03:00PM 33.3456 -86.1872 325° Northwest 443 510 32,000  Level Atlanta Center
03:01PM 33.4483 -86.2719 325° Northwest 448 516 32,000  Level Atlanta Center
03:02PM 33.5469 -86.3544 325° Northwest 448 516 32,000  Level Atlanta Center
03:03PM 33.6561 -86.4447 325° Northwest 441 507 32,000  Level Atlanta Center
03:04PM 33.7567 -86.5300 325° Northwest 441 507 32,000  Level Atlanta Center
03:05PM 33.8550 -86.6103 326° Northwest 441 507 32,000  Level Atlanta Center
03:07PM 34.0178 -86.7461 325° Northwest 450 518 32,000  Level Memphis Center
03:08PM 34.1183 -86.8322 325° Northwest 450 518 32,000  Level Memphis Center
03:09PM 34.2064 -86.9139 323° Northwest 447 514 32,000  Level Memphis Center
03:10PM 34.3175 -87.0100 324° Northwest 453 521 32,000  Level Memphis Center
03:11PM 34.4175 -87.0842 329° Northwest 440 506 32,000  Level Memphis Center
03:12PM 34.5136 -87.1686 324° Northwest 435 501 32,000  Level Memphis Center
03:13PM 34.6117 -87.2558 324° Northwest 440 506 32,000  Level Memphis Center
03:14PM 34.7097 -87.3406 325° Northwest 434 499 32,000  Level Memphis Center
03:15PM 34.8119 -87.4231 326° Northwest 434 499 32,000  Level Memphis Center
03:16PM 34.9078 -87.5058 325° Northwest 429 494 32,000  Level Memphis Center
03:17PM 35.0056 -87.5911 324° Northwest 434 499 32,000  Level Memphis Center
03:18PM 35.0950 -87.6669 325° Northwest 434 499 32,000  Level Memphis Center
03:19PM 35.1947 -87.7500 326° Northwest 441 507 32,000  Level Memphis Center
03:20PM 35.2944 -87.8361 325° Northwest 436 502 32,000  Level Memphis Center
03:21PM 35.3922 -87.9222 324° Northwest 436 502 32,000  Level Memphis Center
03:22PM 35.4897 -88.0086 324° Northwest 435 501 32,000  Level Memphis Center
03:23PM 35.5917 -88.0975 325° Northwest 442 509 32,000  Level Memphis Center
03:24PM 35.6869 -88.1767 326° Northwest 435 501 32,000  Level Memphis Center
03:25PM 35.7864 -88.2664 324° Northwest 435 501 32,000  Level Memphis Center
03:26PM 35.8858 -88.3533 325° Northwest 435 501 32,000  Level Memphis Center
03:27PM 35.9831 -88.4408 324° Northwest 435 501 32,000  Level Memphis Center
03:28PM 36.0825 -88.5283 325° Northwest 441 507 32,000  Level Memphis Center
03:29PM 36.1817 -88.6186 324° Northwest 441 507 32,000  Level Memphis Center
03:30PM 36.2936 -88.7167 325° Northwest 446 513 32,000  Level Memphis Center
03:31PM 36.3928 -88.8075 324° Northwest 446 513 32,000  Level Memphis Center
03:32PM 36.4919 -88.8961 324° Northwest 446 513 32,000  Level Memphis Center
03:33PM 36.5928 -88.9844 325° Northwest 446 513 32,000  Level Memphis Center
03:34PM 36.6939 -89.0786 323° Northwest 446 513 32,000  Level Memphis Center
03:35PM 36.7928 -89.1728 323° Northwest 446 513 32,000  Level Memphis Center
03:36PM 36.8936 -89.2647 324° Northwest 446 513 32,000 -60 Level Memphis Center
03:37PM 36.9925 -89.3569 323° Northwest 446 513 31,900 -1,740 Descending Memphis Center
03:39PM 37.2317 -89.5747 324° Northwest 451 519 26,100 -1,680 Descending Kansas City Center
03:40PM 37.3444 -89.6369 336° Northwest 447 514 26,000 -240 Descending Kansas City Center
03:41PM 37.4575 -89.6983 337° Northwest 444 511 25,600 -540 Descending Kansas City Center
03:42PM 37.5764 -89.7633 337° Northwest 390 449 24,900 -780 Descending Kansas City Center
03:43PM 37.6692 -89.8128 337° Northwest 378 435 24,100 -900 Descending Kansas City Center
03:45PM 37.7636 -89.8664 336° Northwest 374 430 23,100 -1,560 Descending Kansas City Center
03:46PM 37.8703 -89.9231 337° Northwest 366 421 20,900 -2,040 Descending Kansas City Center
03:47PM 37.9586 -89.9739 336° Northwest 351 404 19,000 -1,980 Descending Kansas City Center
03:48PM 38.0489 -90.0231 337° Northwest 354 407 16,900 -2,040 Descending Kansas City Center
03:49PM 38.1458 -90.0786 336° Northwest 361 415 14,800 -1,740 Descending Kansas City Center
03:50PM 38.2294 -90.1250 336° Northwest 339 390 13,400 -1,620 Descending Kansas City Center
03:51PM 38.3078 -90.1689 336° Northwest 315 362 11,500 -1,920 Descending Kansas City Center
03:52PM 38.3856 -90.2119 337° Northwest 308 354 9,500 -1,740 Descending Kansas City Center
03:53PM 38.4775 -90.2639 336° Northwest 307 353 8,000 -780 Descending Kansas City Center
03:54PM 38.5539 -90.3072 336° Northwest 303 349 8,000  Level Kansas City Center
03:55PM 38.6322 -90.3519 336° Northwest 303 349 8,000 -240 Level Kansas City Center
03:56PM 38.6833 -90.4167 315° West 309 356 7,600 -1,200 Descending Gateway (St. Louis) TRACON
03:57PM 38.7167 -90.5000 297° West 300 345 5,900 -1,740 Descending Gateway (St. Louis) TRACON
03:57PM 38.7339 -90.5231 314° West 298 343 5,500 -720 Descending Kansas City Center
03:58PM 38.7703 -90.6086 299° West 281 323 5,000 -840 Descending Kansas City Center
03:59PM 38.8244 -90.6081 360° North 242 278 3,800 -960 Descending Kansas City Center
04:00PM 38.8331 -90.5408 81° East 219 252 3,000 -600 Descending Kansas City Center
04:01PM 38.8089 -90.4814 118° Southeast 200 230 2,600 -660 Descending Kansas City Center
04:02PM 38.7847 -90.4311 122° Southeast 175 201 1,700 -780 Descending Kansas City Center
04:03PM 38.7631 -90.3886 123° Southeast 153 176 1,000 -540 Descending Kansas City Center
04:04PM 38.7394 -90.3406 122° Southeast 146 168 600 -420 Descending Kansas City Center